createdAt,value
2022-10-25T00:01:43.916Z,99.90
2022-10-25T00:04:11.014Z,99.90
2022-10-25T00:06:37.995Z,99.90
2022-10-25T00:09:05.028Z,99.90
2022-10-25T00:11:33.194Z,99.90
2022-10-25T00:14:05.940Z,99.90
2022-10-25T00:16:37.780Z,99.90
2022-10-25T00:19:05.945Z,99.90
2022-10-25T00:21:33.168Z,99.90
2022-10-25T00:24:00.330Z,99.90
2022-10-25T00:26:27.438Z,99.90
2022-10-25T00:28:55.785Z,99.90
2022-10-25T00:31:24.386Z,99.90
2022-10-25T00:33:51.669Z,99.90
2022-10-25T00:36:26.658Z,99.90
2022-10-25T00:38:57.446Z,99.90
2022-10-25T00:41:31.359Z,99.90
2022-10-25T00:44:36.534Z,99.90
2022-10-25T00:47:38.829Z,99.90
2022-10-25T00:50:23.229Z,99.90
2022-10-25T00:52:58.802Z,99.90
2022-10-25T00:55:28.673Z,99.90
2022-10-25T00:58:08.559Z,99.90
2022-10-25T01:00:36.605Z,99.90
2022-10-25T01:03:05.934Z,99.90
2022-10-25T01:05:35.808Z,99.90
2022-10-25T01:08:03.861Z,99.90
2022-10-25T01:10:32.494Z,99.90
2022-10-25T01:13:02.271Z,99.90
2022-10-25T01:15:51.718Z,99.90
2022-10-25T01:18:43.250Z,99.90
2022-10-25T01:21:34.774Z,99.90
2022-10-25T01:24:57.307Z,99.90
2022-10-25T01:28:08.052Z,99.90
2022-10-25T01:31:17.053Z,99.90
2022-10-25T01:34:09.109Z,99.90
2022-10-25T01:37:30.592Z,99.90
2022-10-25T01:40:23.467Z,99.90
2022-10-25T01:43:27.642Z,99.90
2022-10-25T01:46:27.139Z,99.90
2022-10-25T01:49:07.680Z,99.90
2022-10-25T01:51:38.112Z,99.90
2022-10-25T01:54:27.391Z,99.90
2022-10-25T01:57:41.732Z,99.90
2022-10-25T02:00:19.172Z,99.90
2022-10-25T02:03:22.899Z,99.90
2022-10-25T02:05:58.428Z,99.90
2022-10-25T02:09:13.592Z,99.90
2022-10-25T02:11:40.600Z,99.90
2022-10-25T02:14:34.637Z,99.90
2022-10-25T02:17:24.324Z,99.90
2022-10-25T02:19:59.656Z,99.90
2022-10-25T02:22:34.536Z,99.90
2022-10-25T02:25:02.247Z,99.90
2022-10-25T02:27:32.651Z,99.90
2022-10-25T02:30:00.712Z,99.90
2022-10-25T02:32:27.747Z,99.90
2022-10-25T02:34:54.596Z,99.90
2022-10-25T02:37:21.464Z,99.90
2022-10-25T02:39:50.664Z,99.90
2022-10-25T02:42:17.540Z,99.90
2022-10-25T02:44:44.396Z,99.90
2022-10-25T02:47:11.841Z,99.90
2022-10-25T02:49:38.773Z,99.90
2022-10-25T02:52:05.616Z,99.90
2022-10-25T02:54:32.460Z,99.90
2022-10-25T02:56:59.296Z,99.90
2022-10-25T02:59:26.207Z,99.90
2022-10-25T03:01:53.090Z,99.90
2022-10-25T03:04:19.949Z,99.90
2022-10-25T03:06:46.831Z,99.90
2022-10-25T03:09:13.697Z,99.90
2022-10-25T03:11:40.585Z,99.90
2022-10-25T03:14:07.463Z,99.90
2022-10-25T03:16:34.346Z,99.90
2022-10-25T03:19:01.328Z,99.90
2022-10-25T03:21:28.221Z,99.90
2022-10-25T03:23:55.154Z,99.90
2022-10-25T03:26:22.178Z,99.90
2022-10-25T03:28:49.029Z,99.90
2022-10-25T03:31:18.050Z,99.90
2022-10-25T03:33:45.026Z,99.90
2022-10-25T03:36:12.543Z,99.90
2022-10-25T03:38:39.495Z,99.90
2022-10-25T03:41:06.907Z,99.90
2022-10-25T03:43:33.818Z,99.90
2022-10-25T03:46:00.746Z,99.90
2022-10-25T03:48:27.684Z,99.90
2022-10-25T03:50:55.350Z,99.90
2022-10-25T03:53:22.345Z,99.90
2022-10-25T03:55:49.797Z,99.90
2022-10-25T03:58:17.154Z,99.90
2022-10-25T04:00:44.055Z,99.90
2022-10-25T04:03:11.193Z,99.90
2022-10-25T04:05:38.129Z,99.90
2022-10-25T04:08:06.080Z,99.90
2022-10-25T04:10:33.050Z,99.90
2022-10-25T04:12:59.906Z,99.90
2022-10-25T04:15:26.934Z,99.90
2022-10-25T04:17:54.563Z,99.90
2022-10-25T04:20:21.882Z,99.90
2022-10-25T04:22:57.106Z,99.90
2022-10-25T04:25:28.051Z,99.90
2022-10-25T04:27:57.567Z,99.90
2022-10-25T04:30:24.602Z,99.90
2022-10-25T04:32:51.792Z,99.90
2022-10-25T04:35:18.938Z,99.90
2022-10-25T04:37:45.879Z,99.90
2022-10-25T04:40:13.230Z,99.90
2022-10-25T04:42:40.157Z,99.90
2022-10-25T04:45:07.767Z,99.90
2022-10-25T04:47:35.316Z,99.90
2022-10-25T04:50:02.323Z,99.90
2022-10-25T04:52:30.390Z,99.90
2022-10-25T04:54:58.365Z,99.90
2022-10-25T04:57:26.570Z,99.90
2022-10-25T04:59:53.567Z,99.90
2022-10-25T05:02:20.475Z,99.90
2022-10-25T05:04:47.362Z,99.90
2022-10-25T05:07:17.309Z,99.90
2022-10-25T05:09:46.655Z,99.90
2022-10-25T05:12:15.244Z,99.90
2022-10-25T05:14:42.447Z,99.90
2022-10-25T05:17:09.271Z,99.90
2022-10-25T05:19:36.130Z,99.90
2022-10-25T05:22:03.132Z,99.90
2022-10-25T05:24:29.980Z,99.90
2022-10-25T05:26:56.832Z,99.90
2022-10-25T05:29:23.700Z,99.90
2022-10-25T05:31:50.564Z,99.90
2022-10-25T05:34:17.434Z,99.90
2022-10-25T05:36:44.265Z,99.90
2022-10-25T05:39:11.116Z,99.90
2022-10-25T05:41:37.999Z,99.90
2022-10-25T05:44:06.153Z,99.90
2022-10-25T05:46:34.400Z,99.90
2022-10-25T05:49:01.360Z,99.90
2022-10-25T05:51:35.079Z,99.90
2022-10-25T05:54:13.274Z,99.90
2022-10-25T05:56:42.399Z,99.90
2022-10-25T05:59:14.299Z,99.90
2022-10-25T06:01:45.598Z,99.90
2022-10-25T06:04:13.703Z,99.90
2022-10-25T06:06:43.642Z,99.90
2022-10-25T06:09:11.497Z,99.90
2022-10-25T06:11:40.781Z,99.90
2022-10-25T06:14:10.913Z,99.90
2022-10-25T06:16:39.225Z,99.90
2022-10-25T06:19:07.093Z,99.90
2022-10-25T06:21:34.400Z,99.90
2022-10-25T06:24:01.521Z,99.90
2022-10-25T06:26:30.876Z,99.90
2022-10-25T06:29:02.915Z,99.90
2022-10-25T06:31:32.157Z,99.90
2022-10-25T06:34:01.820Z,99.90
2022-10-25T06:36:31.244Z,99.90
2022-10-25T06:39:03.751Z,99.90
2022-10-25T06:41:38.295Z,99.90
2022-10-25T06:44:06.752Z,99.90
2022-10-25T06:49:26.701Z,99.90
2022-10-25T06:51:53.811Z,99.90
2022-10-25T06:54:20.686Z,99.90
2022-10-25T06:56:48.127Z,99.90
2022-10-25T06:59:14.977Z,99.90
2022-10-25T07:01:41.967Z,99.90
2022-10-25T07:04:08.918Z,99.90
2022-10-25T07:06:36.311Z,99.90
2022-10-25T07:09:05.507Z,99.90
2022-10-25T07:11:33.902Z,99.90
2022-10-25T07:14:04.179Z,99.90
2022-10-25T07:16:31.626Z,99.90
2022-10-25T07:19:04.099Z,99.90
2022-10-25T07:21:33.746Z,99.90
2022-10-25T07:24:00.824Z,99.90
2022-10-25T07:26:34.875Z,99.90
2022-10-25T07:29:04.767Z,99.90
2022-10-25T07:31:40.714Z,99.90
2022-10-25T07:34:09.571Z,99.90
2022-10-25T07:36:36.442Z,99.90
2022-10-25T07:39:03.471Z,99.90
2022-10-25T07:41:30.500Z,99.90
2022-10-25T07:43:57.715Z,99.90
2022-10-25T07:46:24.771Z,99.90
2022-10-25T07:48:54.439Z,99.90
2022-10-25T07:51:21.379Z,99.90
2022-10-25T07:53:48.378Z,99.90
2022-10-25T07:56:23.165Z,99.90
2022-10-25T07:58:54.041Z,99.90
2022-10-25T08:03:43.947Z,99.90
2022-10-25T08:06:10.939Z,99.30
2022-10-25T08:08:37.867Z,98.40
2022-10-25T08:11:08.027Z,96.30
2022-10-25T08:13:37.867Z,95.70
2022-10-25T08:16:06.741Z,93.40
2022-10-25T08:18:34.953Z,94.00
2022-10-25T08:21:04.234Z,94.30
2022-10-25T08:23:32.758Z,95.20
2022-10-25T08:26:01.739Z,95.60
2022-10-25T08:28:31.183Z,96.40
2022-10-25T08:31:00.541Z,96.80
2022-10-25T08:33:27.704Z,96.30
2022-10-25T08:35:54.597Z,95.90
2022-10-25T08:38:21.699Z,95.70
2022-10-25T08:41:19.276Z,94.80
2022-10-25T08:44:05.960Z,92.90
2022-10-25T08:47:01.584Z,90.30
2022-10-25T08:50:10.828Z,90.10
2022-10-25T08:52:58.953Z,88.60
2022-10-25T08:55:44.547Z,90.70
2022-10-25T08:58:46.252Z,91.60
2022-10-25T09:01:26.288Z,92.00
2022-10-25T09:03:53.492Z,90.60
2022-10-25T09:06:45.296Z,89.10
2022-10-25T09:09:34.665Z,89.80
2022-10-25T09:12:43.288Z,90.70
2022-10-25T09:15:49.489Z,91.80
2022-10-25T09:18:19.217Z,92.60
2022-10-25T09:21:02.387Z,92.80
2022-10-25T09:23:32.461Z,92.60
2022-10-25T09:26:23.040Z,92.90
2022-10-25T09:29:20.226Z,92.10
2022-10-25T09:31:57.505Z,92.00
2022-10-25T09:34:32.899Z,92.10
2022-10-25T09:37:17.723Z,92.20
2022-10-25T09:39:59.561Z,92.00
2022-10-25T09:42:53.729Z,90.70
2022-10-25T09:45:42.100Z,89.10
2022-10-25T09:48:31.327Z,87.50
2022-10-25T09:51:31.909Z,83.80
2022-10-25T09:54:15.642Z,82.00
2022-10-25T09:56:42.553Z,77.60
2022-10-25T09:59:15.920Z,76.70
2022-10-25T10:01:43.198Z,74.90
2022-10-25T10:04:38.302Z,75.40
2022-10-25T10:07:22.101Z,75.80
2022-10-25T10:09:55.373Z,77.20
2022-10-25T10:15:47.240Z,78.00
2022-10-25T10:18:28.558Z,77.20
2022-10-25T10:21:10.382Z,79.00
2022-10-25T10:23:53.141Z,80.10
2022-10-25T10:26:47.402Z,81.90
2022-10-25T10:29:24.875Z,84.40
2022-10-25T10:32:26.474Z,85.80
2022-10-25T10:34:58.149Z,86.00
2022-10-25T10:37:29.614Z,87.60
2022-10-25T10:40:24.445Z,87.50
2022-10-25T10:42:52.173Z,86.80
2022-10-25T10:45:20.671Z,88.20
2022-10-25T10:47:50.523Z,89.50
2022-10-25T10:50:31.274Z,87.50
2022-10-25T10:53:21.607Z,87.10
2022-10-25T10:56:23.107Z,86.90
2022-10-25T10:58:53.692Z,82.60
2022-10-25T11:01:36.290Z,77.20
2022-10-25T11:04:03.359Z,72.60
2022-10-25T11:06:35.102Z,67.60
2022-10-25T11:09:17.711Z,65.70
2022-10-25T11:12:06.255Z,63.60
2022-10-25T11:14:34.175Z,62.70
2022-10-25T11:17:27.515Z,62.90
2022-10-25T11:20:36.351Z,61.30
2022-10-25T11:23:54.705Z,62.70
2022-10-25T11:26:55.571Z,62.00
2022-10-25T11:30:14.311Z,64.00
2022-10-25T11:33:18.280Z,65.80
2022-10-25T11:36:16.763Z,68.90
2022-10-25T11:39:16.796Z,71.30
2022-10-25T11:42:15.973Z,73.70
2022-10-25T11:45:41.023Z,75.60
2022-10-25T11:48:29.387Z,73.90
2022-10-25T11:52:04.469Z,73.40
2022-10-25T11:55:22.776Z,75.80
2022-10-25T11:58:19.255Z,76.80
2022-10-25T12:01:31.271Z,77.90
2022-10-25T12:04:43.484Z,79.70
2022-10-25T12:07:27.301Z,80.70
2022-10-25T12:10:39.197Z,81.80
2022-10-25T12:13:29.965Z,81.00
2022-10-25T12:16:00.029Z,82.30
2022-10-25T12:18:42.380Z,81.80
2022-10-25T12:21:20.001Z,82.20
2022-10-25T12:23:53.758Z,83.10
2022-10-25T12:26:35.277Z,83.70
2022-10-25T12:29:13.024Z,84.10
2022-10-25T12:31:54.421Z,84.70
2022-10-25T12:34:48.476Z,82.20
2022-10-25T12:37:38.706Z,81.30
2022-10-25T12:40:15.730Z,81.30
2022-10-25T12:43:07.264Z,81.50
2022-10-25T12:45:57.407Z,82.00
2022-10-25T12:49:11.504Z,82.40
2022-10-25T12:52:20.113Z,84.60
2022-10-25T12:55:44.994Z,84.40
2022-10-25T12:58:49.763Z,83.70
2022-10-25T13:01:52.817Z,79.30
2022-10-25T13:05:39.294Z,79.10
2022-10-25T13:08:09.897Z,78.20
2022-10-25T13:10:47.721Z,77.70
2022-10-25T13:13:29.808Z,78.00
2022-10-25T13:16:05.153Z,73.70
2022-10-25T13:18:31.884Z,69.20
2022-10-25T13:21:14.635Z,66.40
2022-10-25T13:23:45.613Z,64.60
2022-10-25T13:26:17.651Z,63.50
2022-10-25T13:28:48.557Z,62.60
2022-10-25T13:31:36.270Z,62.20
2022-10-25T13:34:14.938Z,59.90
2022-10-25T13:36:52.023Z,58.80
2022-10-25T13:39:45.152Z,59.00
2022-10-25T13:42:14.781Z,59.00
2022-10-25T13:45:02.291Z,57.50
2022-10-25T13:47:54.802Z,55.30
2022-10-25T13:50:41.188Z,55.60
2022-10-25T13:53:32.902Z,56.00
2022-10-25T13:56:12.592Z,56.30
2022-10-25T13:58:52.787Z,56.50
2022-10-25T14:01:20.496Z,55.70
2022-10-25T14:04:02.508Z,57.00
2022-10-25T14:06:33.666Z,60.00
2022-10-25T14:09:11.534Z,63.70
2022-10-25T14:12:14.598Z,62.70
2022-10-25T14:15:08.915Z,62.00
2022-10-25T14:17:45.438Z,59.50
2022-10-25T14:20:34.296Z,59.30
2022-10-25T14:23:13.945Z,59.00
2022-10-25T14:25:51.018Z,59.70
2022-10-25T14:28:25.244Z,59.70
2022-10-25T14:31:06.779Z,58.20
2022-10-25T14:33:53.817Z,56.20
2022-10-25T14:36:36.468Z,55.90
2022-10-25T14:39:27.987Z,55.30
2022-10-25T14:42:01.853Z,57.30
2022-10-25T14:44:44.849Z,60.60
2022-10-25T14:47:33.423Z,59.60
2022-10-25T14:50:02.004Z,63.80
2022-10-25T14:52:31.364Z,63.70
2022-10-25T14:55:04.815Z,62.70
2022-10-25T14:57:33.253Z,62.60
2022-10-25T15:00:05.707Z,62.40
2022-10-25T15:02:39.703Z,62.60
2022-10-25T15:05:14.011Z,63.60
2022-10-25T15:07:46.843Z,65.60
2022-10-25T15:10:45.894Z,67.80
2022-10-25T15:13:21.019Z,69.60
2022-10-25T15:15:51.614Z,71.20
2022-10-25T15:18:36.568Z,72.90
2022-10-25T15:21:18.404Z,74.70
2022-10-25T15:24:27.242Z,75.70
2022-10-25T15:27:04.015Z,75.50
2022-10-25T15:29:42.838Z,76.80
2022-10-25T15:32:27.453Z,78.20
2022-10-25T15:34:59.848Z,79.70
2022-10-25T15:37:29.440Z,80.50
2022-10-25T15:39:57.245Z,81.10
2022-10-25T15:42:26.623Z,81.20
2022-10-25T15:44:53.578Z,81.60
2022-10-25T15:47:27.621Z,83.30
2022-10-25T15:49:55.217Z,84.00
2022-10-25T15:52:22.911Z,84.20
2022-10-25T15:54:50.376Z,85.60
2022-10-25T15:57:18.536Z,86.60
2022-10-25T15:59:45.850Z,88.30
2022-10-25T16:02:26.991Z,90.10
2022-10-25T16:04:54.301Z,91.40
2022-10-25T16:07:22.187Z,92.30
2022-10-25T16:09:49.149Z,93.10
2022-10-25T16:12:30.294Z,94.30
2022-10-25T16:14:57.450Z,95.40
2022-10-25T16:17:24.338Z,96.80
2022-10-25T16:19:51.212Z,97.70
2022-10-25T16:22:18.106Z,98.70
2022-10-25T16:24:45.014Z,99.50
2022-10-25T16:27:13.251Z,99.90
2022-10-25T16:29:41.250Z,99.90
2022-10-25T16:32:08.270Z,99.90
2022-10-25T16:34:35.317Z,99.90
2022-10-25T16:37:02.165Z,99.90
2022-10-25T16:39:28.999Z,99.90
2022-10-25T16:41:58.368Z,99.90
2022-10-25T16:44:25.385Z,99.90
2022-10-25T16:46:52.275Z,99.90
2022-10-25T16:49:19.130Z,99.90
2022-10-25T16:51:46.067Z,99.90
2022-10-25T16:54:12.938Z,99.90
2022-10-25T16:56:39.874Z,99.90
2022-10-25T16:59:06.780Z,99.90
2022-10-25T17:01:38.047Z,99.90
2022-10-25T17:04:10.304Z,99.90
2022-10-25T17:06:41.814Z,99.90
2022-10-25T17:09:10.494Z,99.90
2022-10-25T17:11:37.681Z,99.90
2022-10-25T17:14:04.830Z,99.90
2022-10-25T17:16:31.786Z,99.90
2022-10-25T17:18:58.646Z,99.90
2022-10-25T17:21:25.587Z,99.90
2022-10-25T17:23:52.458Z,99.90
2022-10-25T17:26:19.390Z,99.90
2022-10-25T17:28:46.243Z,99.90
2022-10-25T17:31:14.930Z,99.90
2022-10-25T17:33:43.107Z,99.90
2022-10-25T17:36:18.352Z,99.90
2022-10-25T17:38:45.664Z,99.90
2022-10-25T17:41:13.974Z,99.90
2022-10-25T17:43:42.152Z,99.90
2022-10-25T17:46:20.612Z,99.90
2022-10-25T17:48:47.747Z,99.90
2022-10-25T17:51:16.011Z,99.90
2022-10-25T17:53:43.043Z,99.90
2022-10-25T17:56:18.200Z,99.90
2022-10-25T17:58:48.331Z,99.90
2022-10-25T18:01:24.075Z,99.90
2022-10-25T18:03:54.033Z,99.90
2022-10-25T18:06:24.717Z,99.90
2022-10-25T18:09:02.819Z,99.90
2022-10-25T18:11:29.844Z,99.90
2022-10-25T18:14:00.671Z,99.90
2022-10-25T18:16:30.940Z,99.90
2022-10-25T18:19:04.299Z,99.90
2022-10-25T18:21:32.844Z,99.90
2022-10-25T18:24:04.950Z,99.90
2022-10-25T18:26:34.612Z,99.90
2022-10-25T18:29:01.795Z,99.90
2022-10-25T18:31:28.714Z,99.90
2022-10-25T18:33:58.660Z,99.90
2022-10-25T18:36:27.419Z,99.90
2022-10-25T18:38:55.538Z,99.90
2022-10-25T18:41:31.323Z,99.90
2022-10-25T18:43:59.612Z,99.90
2022-10-25T18:46:30.609Z,99.90
2022-10-25T18:48:58.010Z,99.90
2022-10-25T18:51:28.711Z,99.90
2022-10-25T18:53:58.536Z,99.90
2022-10-25T18:56:28.227Z,99.90
2022-10-25T18:58:56.910Z,99.90
2022-10-25T19:01:31.841Z,99.90
2022-10-25T19:04:02.464Z,99.90
2022-10-25T19:06:30.642Z,99.90
2022-10-25T19:08:57.506Z,99.90
2022-10-25T19:11:24.507Z,99.90
2022-10-25T19:13:56.418Z,99.90
2022-10-25T19:16:24.171Z,99.90
2022-10-25T19:18:51.120Z,99.90
2022-10-25T19:21:19.022Z,99.90
2022-10-25T19:23:47.233Z,99.90
2022-10-25T19:26:19.693Z,99.90
2022-10-25T19:28:47.664Z,99.90
2022-10-25T19:31:17.589Z,99.90
2022-10-25T19:33:50.265Z,99.90
2022-10-25T19:36:18.337Z,99.90
2022-10-25T19:38:48.280Z,99.90
2022-10-25T19:41:22.702Z,99.90
2022-10-25T19:43:50.425Z,99.90
2022-10-25T19:46:18.442Z,99.90
2022-10-25T19:48:46.089Z,99.90
2022-10-25T19:51:21.370Z,99.90
2022-10-25T19:53:49.325Z,99.90
2022-10-25T19:56:23.313Z,99.90
2022-10-25T19:58:51.406Z,99.90
2022-10-25T20:01:29.109Z,99.90
2022-10-25T20:03:57.916Z,99.90
2022-10-25T20:06:34.087Z,99.90
2022-10-25T20:09:02.073Z,99.90
2022-10-25T20:11:29.664Z,99.90
2022-10-25T20:14:00.543Z,99.90
2022-10-25T20:16:29.430Z,99.90
2022-10-25T20:18:59.810Z,99.90
2022-10-25T20:21:36.236Z,99.90
2022-10-25T20:24:09.293Z,99.90
2022-10-25T20:26:44.410Z,99.90
2022-10-25T20:29:24.402Z,99.90
2022-10-25T20:31:51.960Z,99.90
2022-10-25T20:34:20.623Z,99.90
2022-10-25T20:36:48.542Z,99.90
2022-10-25T20:39:15.975Z,99.90
2022-10-25T20:41:43.972Z,99.90
2022-10-25T20:44:11.140Z,99.90
2022-10-25T20:46:38.099Z,99.90
2022-10-25T20:49:07.340Z,99.90
2022-10-25T20:51:34.933Z,99.90
2022-10-25T20:54:05.125Z,99.90
2022-10-25T20:56:32.042Z,99.90
2022-10-25T20:58:58.889Z,99.90
2022-10-25T21:01:25.849Z,99.90
2022-10-25T21:03:53.945Z,99.90
2022-10-25T21:06:20.806Z,99.90
2022-10-25T21:08:47.637Z,99.90
2022-10-25T21:11:14.570Z,99.90
2022-10-25T21:13:41.957Z,99.90
2022-10-25T21:16:15.714Z,99.90
2022-10-25T21:18:44.045Z,99.90
2022-10-25T21:21:20.311Z,99.90
2022-10-25T21:23:48.349Z,99.90
2022-10-25T21:26:16.048Z,99.90
2022-10-25T21:28:43.001Z,99.90
2022-10-25T21:31:15.162Z,99.90
2022-10-25T21:33:49.990Z,99.90
2022-10-25T21:36:20.496Z,99.90
2022-10-25T21:38:48.280Z,99.90
2022-10-25T21:41:20.632Z,99.90
2022-10-25T21:43:50.859Z,99.90
2022-10-25T21:46:21.212Z,99.90
2022-10-25T21:48:50.518Z,99.90
2022-10-25T21:51:26.185Z,99.90
2022-10-25T21:53:54.731Z,99.90
2022-10-25T21:56:31.843Z,99.90
2022-10-25T21:59:00.058Z,99.90
2022-10-25T22:01:30.054Z,99.90
2022-10-25T22:03:57.905Z,99.90
2022-10-25T22:06:27.122Z,99.90
2022-10-25T22:08:55.711Z,99.90
2022-10-25T22:11:28.977Z,99.90
2022-10-25T22:14:08.246Z,99.90
2022-10-25T22:16:36.293Z,99.90
2022-10-25T22:19:15.547Z,99.90
2022-10-25T22:21:43.849Z,99.90
2022-10-25T22:24:12.916Z,99.90
2022-10-25T22:26:43.897Z,99.90
2022-10-25T22:29:13.897Z,99.90
2022-10-25T22:31:41.501Z,99.90
2022-10-25T22:34:09.726Z,99.90
2022-10-25T22:36:41.097Z,99.90
2022-10-25T22:39:10.061Z,99.90
2022-10-25T22:41:37.036Z,99.90
2022-10-25T22:44:04.274Z,99.90
2022-10-25T22:46:36.537Z,99.90
2022-10-25T22:49:09.168Z,99.90
2022-10-25T22:51:38.020Z,99.90
2022-10-25T22:54:05.498Z,99.90
2022-10-25T22:56:33.313Z,99.90
2022-10-25T22:59:04.770Z,99.90
2022-10-25T23:01:37.577Z,99.90
2022-10-25T23:04:09.934Z,99.90
2022-10-25T23:06:40.029Z,99.90
2022-10-25T23:09:10.227Z,99.90
2022-10-25T23:11:40.759Z,99.90
2022-10-25T23:14:13.336Z,99.90
2022-10-25T23:16:43.634Z,99.90
2022-10-25T23:19:10.491Z,99.90
2022-10-25T23:21:37.394Z,99.90
2022-10-25T23:24:04.787Z,99.90
2022-10-25T23:26:36.291Z,99.90
2022-10-25T23:29:04.912Z,99.90
2022-10-25T23:31:32.738Z,99.90
2022-10-25T23:34:01.147Z,99.90
2022-10-25T23:36:37.614Z,99.90
2022-10-25T23:39:07.505Z,99.90
2022-10-25T23:41:34.523Z,99.90
2022-10-25T23:44:01.459Z,99.90
2022-10-25T23:46:28.302Z,99.90
2022-10-25T23:48:55.272Z,99.90
2022-10-25T23:51:22.096Z,99.90
2022-10-25T23:53:48.962Z,99.90
2022-10-25T23:56:16.073Z,99.90
2022-10-25T23:58:42.975Z,99.90
